Latest Weather Observations for Maningrida Airport

IDD60801

Issued at 3:51 pm CST Tuesday 16 July 2019 (issued every 10 minutes, with the page automatically refreshed every 10 minutes)

About weather observations | Map of weather stations | Latest weather observations for NT | Other Formats
Station Details ID: 014405 Name: MANINGRIDA AIRPORT Lat: -12.06 Lon: 134.23 Height: 28.1 m
Data from the previous 72 hours. | See also: Recent months at Maningrida Airport
Date/Time
CST
Temp
°C
App
Temp
°C
Dew
Point
°C
Rel
Hum
%
Delta-T
°C
Wind Press
QNH
hPa
Press
MSL
hPa
Rain since
9am
mm
Dir  Spd
km/h
Gust
km/h
Spd
kts
Gust
kts
16/03:30pm 28.9 25.8 11.5 34 10.0 SSE 19 28 10 15 1012.0 1011.8 0.0
16/03:00pm 29.3 26.6 11.8 34 10.2 SE 17 28 9 15 1012.0 1011.8 0.0
16/02:30pm 28.7 25.3 11.3 34 10.0 SSE 20 35 11 19 1012.2 1012.0 0.0
16/02:00pm 28.5 25.1 11.1 34 10.0 SSE 20 37 11 20 1012.7 1012.5 0.0
16/01:30pm 27.6 23.7 10.8 35 9.5 SSE 22 32 12 17 1013.3 1013.1 0.0
16/01:00pm 27.4 23.7 10.2 34 9.6 SE 20 28 11 15 1014.1 1013.9 0.0
16/12:30pm 26.8 22.3 10.1 35 9.3 SE 24 33 13 18 1014.6 1014.4 0.0
16/12:00pm 26.0 21.1 9.8 36 8.9 SSE 26 43 14 23 1015.1 1014.9 0.0
16/11:30am 25.1 20.3 9.0 36 8.7 SSE 24 41 13 22 1015.6 1015.4 0.0
16/11:00am 24.9 19.3 8.8 36 8.7 SE 28 41 15 22 1016.0 1015.8 0.0
16/10:30am 23.9 17.6 9.1 39 8.0 SE 32 50 17 27 1016.2 1016.0 0.0
16/10:24am 23.6 17.9 8.5 38 8.1 SE 28 50 15 27 1016.3 1016.1 0.0
16/10:00am 23.5 19.0 10.2 43 7.3 SSE 24 41 13 22 1016.4 1016.2 0.0
16/09:30am 22.3 17.4 9.8 45 6.8 SSE 26 43 14 23 1016.7 1016.5 0.0
16/09:00am 20.8 17.3 10.9 53 5.4 SSE 20 35 11 19 1016.6 1016.4 -
16/08:30am 19.1 16.1 12.6 66 3.6 SSE 20 28 11 15 1016.5 1016.3 -
16/08:00am 18.4 16.3 13.5 73 2.8 SSE 17 28 9 15 1016.2 1016.0 -
16/07:30am 18.0 15.9 13.7 76 2.4 SSE 17 24 9 13 1015.9 1015.7 -
16/07:00am 17.4 15.7 13.7 79 2.1 SSE 15 22 8 12 1015.6 1015.4 -
16/06:30am 16.9 15.6 13.6 81 1.9 S 13 20 7 11 1015.2 1015.0 -
16/06:00am 16.6 15.6 13.5 82 1.7 S 11 17 6 9 1015.1 1014.9 -
16/05:30am 16.5 15.8 13.2 81 1.8 S 9 15 5 8 1014.9 1014.7 -
16/05:00am 16.6 15.9 13.1 80 2.0 S 9 11 5 6 1014.8 1014.6 -
16/04:30am 16.9 16.5 13.0 78 2.2 S 7 11 4 6 1014.7 1014.5 -
16/04:00am 17.8 17.5 13.3 75 2.5 S 7 9 4 5 1014.8 1014.6 -
16/03:30am 18.2 17.2 13.3 73 2.8 S 11 15 6 8 1014.8 1014.6 -
16/03:00am 18.6 16.8 13.2 71 3.1 SSE 15 20 8 11 1015.0 1014.8 0.0
16/02:30am 18.7 17.1 12.9 69 3.3 SSE 13 20 7 11 1015.2 1015.0 -
16/02:00am 18.8 17.1 12.3 66 3.6 SSE 13 20 7 11 1015.2 1015.0 -
16/01:30am 19.3 17.3 12.6 65 3.8 SSE 15 22 8 12 1015.3 1015.1 -
16/01:00am 19.7 17.6 12.5 63 4.0 SSE 15 20 8 11 1015.7 1015.5 -
16/12:30am 20.1 17.3 12.6 62 4.2 SSE 19 26 10 14 1015.6 1015.4 -
16/12:00am 20.5 18.1 12.7 61 4.4 SSE 17 24 9 13 1015.6 1015.4 -
 
Date/Time
CST
Temp
°C
App
Temp
°C
Dew
Point
°C
Rel
Hum
%
Delta-T
°C
Wind Press
QNH
hPa
Press
MSL
hPa
Rain since
9am
mm
Dir  Spd
km/h
Gust
km/h
Spd
kts
Gust
kts
15/11:30pm 20.8 18.8 12.8 60 4.5 SSE 15 24 8 13 1015.6 1015.4 -
15/11:00pm 21.1 19.2 13.0 60 4.6 SSE 15 20 8 11 1015.8 1015.6 -
15/10:30pm 21.5 19.3 13.2 59 4.8 SE 17 22 9 12 1015.8 1015.6 -
15/10:00pm 21.7 19.4 13.1 58 4.9 SE 17 26 9 14 1015.8 1015.6 -
15/09:30pm 22.0 19.1 12.8 56 5.2 SE 20 28 11 15 1015.7 1015.5 -
15/09:00pm 22.5 19.5 12.7 54 5.6 SE 20 28 11 15 1015.6 1015.4 0.0
15/08:30pm 22.9 19.9 12.5 52 5.9 SE 20 26 11 14 1015.2 1015.0 -
15/08:00pm 23.2 21.1 12.5 51 6.1 SE 15 22 8 12 1014.8 1014.6 -
15/07:30pm 23.8 20.9 12.4 48 6.5 ESE 19 28 10 15 1014.3 1014.1 -
15/07:00pm 24.7 22.9 12.0 45 7.2 SE 13 19 7 10 1013.5 1013.3 -
15/06:30pm 25.2 23.0 12.1 44 7.5 SSE 15 22 8 12 1012.9 1012.7 -
15/06:00pm 25.8 23.2 11.9 42 8.0 SSE 17 24 9 13 1012.5 1012.3 -
15/05:30pm 26.6 24.0 11.9 40 8.4 SSE 17 28 9 15 1012.2 1012.0 -
15/05:00pm 27.6 25.1 12.4 39 8.8 SSE 17 26 9 14 1012.1 1011.9 -
15/04:30pm 27.7 25.3 12.5 39 8.9 SE 17 26 9 14 1012.0 1011.8 -
15/04:00pm 27.6 23.7 12.0 38 9.0 SE 24 33 13 18 1012.0 1011.8 -
15/03:30pm 27.5 23.7 12.3 39 8.8 SSE 24 35 13 19 1012.1 1011.9 -
15/03:00pm 27.1 23.0 11.6 38 8.9 SSE 24 35 13 19 1012.5 1012.3 -
15/02:30pm 26.0 21.7 10.6 38 8.6 SSE 24 35 13 19 1012.8 1012.6 -
15/02:00pm 26.1 21.8 10.7 38 8.6 SSE 24 39 13 21 1013.2 1013.0 -
15/01:30pm 25.7 21.9 9.9 37 8.7 SSE 20 32 11 17 1013.7 1013.5 -
15/01:00pm 25.6 21.5 10.2 38 8.6 S 22 32 12 17 1014.1 1013.9 -
15/12:30pm 26.1 20.9 10.3 37 8.8 SSE 28 43 15 23 1014.6 1014.4 -
15/12:00pm 24.5 19.9 9.6 39 8.1 SSE 24 37 13 20 1015.1 1014.9 -
15/11:30am 25.4 20.4 9.7 37 8.6 SSE 26 43 14 23 1015.6 1015.4 -
15/11:00am 23.9 17.4 9.1 39 8.0 SSE 33 48 18 26 1015.9 1015.7 -
15/10:30am 23.4 16.8 10.1 43 7.3 SSE 35 46 19 25 1016.1 1015.9 0.0
15/10:00am 22.8 17.2 10.3 45 6.9 SSE 30 46 16 25 1016.4 1016.2 0.0
15/09:31am 22.2 17.1 10.7 48 6.3 SSE 28 46 15 25 1016.4 1016.2 0.0
15/09:30am 22.4 17.8 10.9 48 6.4 SSE 26 46 14 25 1016.4 1016.2 0.0
15/09:27am 22.5 17.4 10.6 47 6.6 SSE 28 46 15 25 1016.3 1016.1 0.0
15/09:00am 21.7 17.4 12.0 54 5.4 SSE 26 43 14 23 1016.1 1015.9 0.0
15/08:30am 21.3 17.7 13.0 59 4.7 SSE 24 37 13 20 1016.0 1015.8 0.0
15/08:00am 20.8 17.1 12.8 60 4.5 SSE 24 35 13 19 1015.8 1015.6 0.0
15/07:30am 20.4 17.4 12.1 59 4.6 S 19 32 10 17 1015.7 1015.5 0.0
15/07:00am 20.2 18.0 12.2 60 4.5 S 15 26 8 14 1015.2 1015.0 0.0
15/06:30am 20.3 18.2 12.3 60 4.5 S 15 22 8 12 1015.2 1015.0 0.0
15/06:00am 20.7 18.8 11.9 57 4.9 S 13 20 7 11 1015.3 1015.1 0.0
15/05:30am 20.8 18.6 12.2 58 4.8 SSE 15 22 8 12 1015.2 1015.0 0.0
15/05:00am 20.7 18.6 12.4 59 4.7 SSE 15 22 8 12 1015.1 1014.9 0.0
15/04:30am 20.8 18.4 12.5 59 4.7 SSE 17 28 9 15 1015.1 1014.9 0.0
15/04:00am 21.0 17.9 12.2 57 4.9 SSE 20 32 11 17 1015.1 1014.9 0.0
15/03:30am 21.1 18.4 11.7 55 5.2 SSE 17 28 9 15 1015.2 1015.0 0.0
15/03:00am 21.6 18.3 11.0 51 5.8 SSE 19 28 10 15 1015.4 1015.2 0.0
15/02:30am 21.5 18.3 11.8 54 5.4 SSE 20 28 11 15 1015.7 1015.5 0.0
15/02:00am 21.3 17.7 13.0 59 4.7 SSE 24 35 13 19 1016.0 1015.8 0.0
15/01:30am 20.8 19.0 13.3 62 4.3 SSE 15 24 8 13 1016.3 1016.1 0.0
15/01:00am 21.0 19.5 13.2 61 4.5 SSE 13 22 7 12 1016.7 1016.5 0.0
15/12:30am 21.2 18.9 13.1 60 4.6 SSE 17 24 9 13 1016.8 1016.6 0.0
15/12:00am 21.5 18.7 12.6 57 5.0 SSE 19 28 10 15 1017.2 1017.0 0.0
 
Date/Time
CST
Temp
°C
App
Temp
°C
Dew
Point
°C
Rel
Hum
%
Delta-T
°C
Wind Press
QNH
hPa
Press
MSL
hPa
Rain since
9am
mm
Dir  Spd
km/h
Gust
km/h
Spd
kts
Gust
kts
14/11:30pm 22.0 19.0 12.5 54 5.4 SSE 20 37 11 20 1017.2 1017.0 0.0
14/11:00pm 22.5 19.1 12.4 52 5.7 SSE 22 37 12 20 1017.0 1016.8 0.0
14/10:30pm 23.0 20.0 12.6 52 5.9 SSE 20 33 11 18 1016.8 1016.6 0.0
14/10:00pm 23.2 20.2 12.5 51 6.1 SSE 20 28 11 15 1016.4 1016.2 0.0
14/09:30pm 23.8 20.9 12.8 50 6.3 SE 20 30 11 16 1016.1 1015.9 0.0
14/09:00pm 24.1 20.7 12.4 48 6.7 SE 22 35 12 19 1015.9 1015.7 0.0
14/08:30pm 24.3 21.8 12.3 47 6.9 SSE 17 26 9 14 1015.4 1015.2 0.0
14/08:00pm 24.5 21.4 12.1 46 7.1 SE 20 30 11 16 1014.9 1014.7 0.0
14/07:30pm 24.9 22.5 12.5 46 7.1 SE 17 24 9 13 1014.6 1014.4 0.0
14/07:00pm 25.0 23.0 12.6 46 7.2 SE 15 20 8 11 1014.3 1014.1 0.0
14/06:30pm 25.6 22.6 12.1 43 7.7 SE 19 26 10 14 1013.7 1013.5 0.0
14/06:00pm 26.3 22.7 12.0 41 8.2 SE 22 35 12 19 1013.5 1013.3 0.0
14/05:30pm 26.9 23.7 11.8 39 8.7 SE 20 30 11 16 1013.1 1012.9 0.0
14/05:00pm 27.3 24.0 11.7 37 9.0 SSE 20 30 11 16 1012.8 1012.6 0.0
14/04:30pm 27.8 24.6 11.8 37 9.2 SE 20 28 11 15 1012.6 1012.4 0.0
14/04:00pm 27.6 24.6 12.0 38 9.0 SE 19 28 10 15 1012.5 1012.3 0.0
14/03:30pm 28.3 24.8 12.2 37 9.4 SSE 22 33 12 18 1012.3 1012.1 0.0
14/03:00pm 28.6 25.1 12.1 36 9.6 SE 22 32 12 17 1012.4 1012.2 0.0
14/02:30pm 28.4 24.8 11.9 36 9.6 SE 22 30 12 16 1012.5 1012.3 0.0
14/02:00pm 28.7 25.4 11.7 35 9.8 SSE 20 32 11 17 1012.9 1012.7 0.0
14/01:30pm 27.7 24.1 11.7 37 9.2 SSE 22 41 12 22 1013.4 1013.2 0.0
14/01:00pm 27.2 22.9 12.0 38 8.8 SSE 26 43 14 23 1013.8 1013.6 0.0
14/12:30pm 27.8 23.2 12.2 38 9.1 SE 28 43 15 23 1014.4 1014.2 0.0
14/12:00pm 26.4 21.9 12.5 42 8.1 SSE 28 46 15 25 1014.8 1014.6 0.0
14/11:59am 26.8 22.3 12.5 41 8.3 SSE 28 46 15 25 1014.9 1014.7 0.0
14/11:30am 26.6 22.0 12.3 41 8.3 SSE 28 41 15 22 1015.4 1015.2 0.0
14/11:00am 25.7 20.7 12.2 43 7.8 SSE 30 43 16 23 1016.0 1015.8 0.0
14/10:30am 25.5 20.1 12.7 45 7.4 SE 33 56 18 30 1016.1 1015.9 0.0
14/10:15am 24.6 19.2 12.2 46 7.1 SSE 32 52 17 28 1016.3 1016.1 0.0
14/10:00am 23.9 19.3 13.4 51 6.1 SSE 30 44 16 24 1016.4 1016.2 0.0
14/09:30am 22.7 20.0 13.5 56 5.3 SSE 20 35 11 19 1016.6 1016.4 0.0
14/09:00am 21.2 18.3 12.9 59 4.7 S 20 30 11 16 1016.7 1016.5 0.0
14/08:30am 20.3 17.3 12.5 61 4.4 S 20 30 11 16 1016.6 1016.4 0.0
14/08:00am 19.4 16.3 11.7 61 4.3 S 19 28 10 15 1016.4 1016.2 0.0
14/07:30am 18.1 15.8 10.5 61 4.1 S 13 20 7 11 1016.1 1015.9 0.0
14/07:00am 17.5 15.6 10.4 63 3.8 S 11 17 6 9 1015.9 1015.7 0.0
14/06:30am 17.1 15.1 10.2 64 3.7 S 11 17 6 9 1015.6 1015.4 0.0
14/06:00am 16.2 14.6 10.1 67 3.2 S 9 13 5 7 1015.4 1015.2 0.0
14/05:30am 15.1 13.8 9.9 71 2.7 S 7 9 4 5 1015.4 1015.2 0.0
14/05:00am 15.2 13.9 9.8 70 2.8 SSW 7 9 4 5 1015.2 1015.0 0.0
14/04:30am 15.9 14.5 9.6 66 3.3 S 7 11 4 6 1015.0 1014.8 0.0
14/04:00am 16.5 14.7 9.4 63 3.7 S 9 11 5 6 1014.9 1014.7 0.0
14/03:30am 16.6 15.1 9.3 62 3.8 S 7 11 4 6 1015.3 1015.1 0.0
14/03:00am 16.8 15.1 9.7 63 3.7 S 9 11 5 6 1015.4 1015.2 0.0
14/02:30am 16.7 15.4 9.9 64 3.6 SSW 7 9 4 5 1015.7 1015.5 0.0
14/02:00am 17.0 15.9 10.6 66 3.4 S 7 9 4 5 1015.9 1015.7 0.0
14/01:30am 17.9 17.0 10.5 62 4.0 S 6 9 3 5 1016.0 1015.8 0.0
14/01:13am 18.6 17.4 10.2 58 4.5 S 7 9 4 5 1016.1 1015.9 0.0
14/01:00am 20.0 18.5 10.4 54 5.2 SSE 9 11 5 6 1016.1 1015.9 0.0
14/12:30am 20.7 19.2 10.5 52 5.5 SSE 9 11 5 6 1016.4 1016.2 0.0
14/12:00am 21.1 19.9 10.3 50 5.9 SSE 7 9 4 5 1016.7 1016.5 0.0
 
Date/Time
CST
Temp
°C
App
Temp
°C
Dew
Point
°C
Rel
Hum
%
Delta-T
°C
Wind Press
QNH
hPa
Press
MSL
hPa
Rain since
9am
mm
Dir  Spd
km/h
Gust
km/h
Spd
kts
Gust
kts
13/11:30pm 21.8 20.5 10.0 47 6.4 SSE 7 9 4 5 1016.8 1016.6 0.0
13/11:00pm 22.9 20.9 10.0 44 7.0 SE 11 15 6 8 1016.9 1016.7 0.0
13/10:30pm 23.5 20.7 8.4 38 8.0 SE 13 19 7 10 1017.1 1016.9 0.0
13/10:00pm 23.9 20.9 7.5 35 8.6 SE 13 19 7 10 1017.0 1016.8 0.0
13/09:30pm 24.4 20.5 7.1 33 9.0 SE 17 24 9 13 1016.7 1016.5 0.0
13/09:00pm 24.6 20.3 7.7 34 8.9 SE 20 30 11 16 1016.2 1016.0 0.0
13/08:30pm 24.8 20.3 8.7 36 8.7 SE 22 32 12 17 1015.7 1015.5 0.0
13/08:00pm 25.1 21.5 9.8 38 8.4 SE 19 26 10 14 1015.1 1014.9 0.0
13/07:30pm 25.7 22.2 10.3 38 8.6 SE 19 28 10 15 1014.5 1014.3 0.0
13/07:00pm 26.1 23.0 11.5 40 8.3 ESE 19 24 10 13 1013.8 1013.6 0.0
13/06:30pm 26.7 24.5 13.4 43 7.8 ESE 17 26 9 14 1013.3 1013.1 0.0
13/06:00pm 27.5 25.3 14.5 45 7.8 SE 19 30 10 16 1012.9 1012.7 0.0
13/05:30pm 28.1 26.2 14.3 42 8.3 SE 17 24 9 13 1012.6 1012.4 0.0
13/05:00pm 28.7 27.1 14.9 43 8.4 SE 17 24 9 13 1012.4 1012.2 0.0
13/04:30pm 29.1 26.9 14.9 42 8.7 SE 20 28 11 15 1012.2 1012.0 0.0
13/04:00pm 29.3 26.4 15.1 42 8.7 SE 24 33 13 18 1012.3 1012.1 0.0

Other formats

Comma delimited format used in spreadsheet applications
http://www.bom.gov.au/fwo/IDD60801/IDD60801.95142.axf

JavaScript Object Notation format (JSON) in row-major order
http://www.bom.gov.au/fwo/IDD60801/IDD60801.95142.json

Data quality

Most of these data are generated automatically and are frequently updated. Quality checks on data are not normally performed. It is possible for incorrect values to appear. Refer to information at About Latest Weather Observations and please check the disclaimer before using these data.